Time;durP1;ratioP1;P1;durP2;ratioP2;P2;SDS_P1;SDS_P2;PMS_P1;PMS_P2;Temp;Humidity;BMP_temperature;BMP_pressure;BME280_temperature;BME280_humidity;BME280_pressure;Samples;Min_cycle;Max_cycle;Signal;HPM_P1;HPM_P2
2022/07/23 00:01:04;;;;;;;3.97;3.67;;;25.70;99.90;;;;;;5081827;28;20453;-78
2022/07/23 00:03:32;;;;;;;3.93;3.13;;;25.70;99.90;;;;;;5077442;28;20520;-80
2022/07/23 00:06:00;;;;;;;3.40;3.20;;;25.80;99.90;;;;;;5080917;28;20470;-78
2022/07/23 00:08:29;;;;;;;3.40;2.90;;;26.00;99.90;;;;;;5084867;28;20455;-77
2022/07/23 00:10:57;;;;;;;3.57;3.37;;;26.00;99.90;;;;;;5082622;28;20959;-80
2022/07/23 00:13:27;;;;;;;3.00;2.80;;;26.00;99.90;;;;;;5079250;28;20968;-78
2022/07/23 00:15:56;;;;;;;3.90;3.60;;;26.00;99.90;;;;;;5082512;28;20795;-81
2022/07/23 00:18:24;;;;;;;2.90;2.70;;;26.00;99.90;;;;;;5083528;28;20469;-77
2022/07/23 00:20:53;;;;;;;3.40;3.10;;;25.90;99.90;;;;;;5078436;28;20451;-80
2022/07/23 00:23:21;;;;;;;3.50;3.30;;;25.90;99.90;;;;;;5081108;28;20467;-80
2022/07/23 00:25:49;;;;;;;3.50;2.90;;;25.90;99.90;;;;;;5079369;28;20482;-78
2022/07/23 00:28:18;;;;;;;3.13;2.90;;;25.90;99.90;;;;;;5080765;28;20453;-78
2022/07/23 00:30:47;;;;;;;3.03;2.73;;;25.90;99.90;;;;;;5080881;28;20510;-79
2022/07/23 00:33:15;;;;;;;3.50;3.20;;;26.10;99.90;;;;;;5083341;28;20461;-79
2022/07/23 00:35:44;;;;;;;2.90;2.70;;;26.10;99.90;;;;;;5076750;28;20498;-79
2022/07/23 00:38:12;;;;;;;2.97;2.70;;;26.10;99.90;;;;;;5082302;28;21212;-78
2022/07/23 00:40:40;;;;;;;3.30;2.83;;;26.10;99.90;;;;;;5078533;28;21687;-77
2022/07/23 00:43:09;;;;;;;3.40;3.20;;;26.00;99.90;;;;;;5082391;28;20972;-77
2022/07/23 00:45:37;;;;;;;2.60;2.40;;;26.10;99.90;;;;;;5079597;28;20477;-77
2022/07/23 00:48:07;;;;;;;3.00;2.80;;;26.20;99.90;;;;;;5082807;28;21007;-77
2022/07/23 00:50:35;;;;;;;3.83;3.40;;;26.20;99.90;;;;;;5076518;28;20457;-78
2022/07/23 00:53:03;;;;;;;3.10;2.90;;;26.00;99.90;;;;;;5080547;28;21098;-79
2022/07/23 00:55:31;;;;;;;2.97;2.77;;;26.00;99.90;;;;;;5081720;28;20477;-79
2022/07/23 00:58:00;;;;;;;2.60;2.40;;;26.10;99.90;;;;;;5083428;28;21026;-77
2022/07/23 01:00:28;;;;;;;3.07;2.87;;;26.10;99.90;;;;;;5080430;28;20912;-78
2022/07/23 01:02:57;;;;;;;2.40;2.20;;;26.40;99.90;;;;;;5079675;28;20526;-78
2022/07/23 01:05:26;;;;;;;2.77;2.57;;;26.40;99.90;;;;;;5079078;28;20444;-78
2022/07/23 01:07:55;;;;;;;4.00;3.17;;;26.40;99.90;;;;;;5082380;28;20494;-79
2022/07/23 01:10:33;;;;;;;2.87;2.67;;;26.40;99.90;;;;;;5080188;28;21062;-79
2022/07/23 01:13:04;;;;;;;3.30;3.10;;;26.50;99.90;;;;;;5078929;28;20460;-79
2022/07/23 01:15:33;;;;;;;3.47;3.00;;;26.40;99.90;;;;;;5079025;28;20541;-78
2022/07/23 01:18:01;;;;;;;2.97;2.77;;;26.30;99.90;;;;;;5079407;28;20529;-81
2022/07/23 01:20:32;;;;;;;3.10;2.80;;;26.10;99.90;;;;;;5082980;28;20452;-78
2022/07/23 01:23:01;;;;;;;2.97;2.77;;;26.10;99.90;;;;;;5080665;28;20988;-79
2022/07/23 01:25:29;;;;;;;3.00;2.80;;;26.10;99.90;;;;;;5082616;28;20480;-79
2022/07/23 01:27:57;;;;;;;2.87;2.67;;;26.20;99.90;;;;;;5079172;28;20480;-79
2022/07/23 01:30:26;;;;;;;2.57;2.37;;;26.40;99.90;;;;;;5079469;28;20527;-78
2022/07/23 01:32:54;;;;;;;3.37;2.90;;;26.40;99.90;;;;;;5079025;28;20994;-79
2022/07/23 01:35:22;;;;;;;2.80;2.60;;;26.30;99.90;;;;;;5074863;28;20445;-77
2022/07/23 01:37:50;;;;;;;3.17;2.87;;;26.30;99.90;;;;;;5082652;28;20533;-78
2022/07/23 01:40:20;;;;;;;3.40;3.00;;;26.40;99.90;;;;;;5079966;28;20485;-77
2022/07/23 01:42:50;;;;;;;3.03;2.83;;;26.50;99.90;;;;;;5080318;28;20882;-77
2022/07/23 01:45:18;;;;;;;3.40;2.80;;;26.40;99.90;;;;;;5080927;28;20557;-76
2022/07/23 01:47:47;;;;;;;3.27;2.97;;;26.10;99.90;;;;;;5077286;28;20482;-77
2022/07/23 01:50:15;;;;;;;2.50;2.30;;;25.90;99.90;;;;;;5082464;28;20454;-77
2022/07/23 01:52:43;;;;;;;3.10;2.90;;;25.90;99.90;;;;;;5074535;28;21444;-80
2022/07/23 01:55:11;;;;;;;3.30;2.67;;;26.00;99.90;;;;;;5084753;28;20848;-79
2022/07/23 01:57:47;;;;;;;3.00;2.70;;;26.10;99.90;;;;;;5083888;28;20499;-78
2022/07/23 02:00:16;;;;;;;3.33;3.03;;;26.30;99.90;;;;;;5084242;28;20453;-79
2022/07/23 02:02:44;;;;;;;2.50;2.30;;;26.30;99.90;;;;;;5078172;28;20443;-81
2022/07/23 02:05:12;;;;;;;3.50;3.17;;;26.20;99.90;;;;;;5083391;28;20546;-78
2022/07/23 02:07:40;;;;;;;3.50;3.23;;;26.10;99.90;;;;;;5085278;28;20479;-80
2022/07/23 02:10:09;;;;;;;2.70;2.50;;;25.80;99.90;;;;;;5082514;28;20977;-78
2022/07/23 02:12:37;;;;;;;3.17;2.87;;;25.70;99.90;;;;;;5081693;28;20906;-77
2022/07/23 02:15:08;;;;;;;3.00;2.80;;;25.70;99.90;;;;;;5081765;28;21040;-79
2022/07/23 02:17:38;;;;;;;2.90;2.70;;;25.60;99.90;;;;;;5078319;28;20442;-77
2022/07/23 02:20:07;;;;;;;2.80;2.60;;;25.60;99.90;;;;;;5079629;28;20973;-77
2022/07/23 02:22:36;;;;;;;7.27;2.67;;;25.50;99.90;;;;;;5083567;28;20503;-78
2022/07/23 02:25:05;;;;;;;3.20;3.00;;;25.30;99.90;;;;;;5086056;28;20446;-77
2022/07/23 02:27:33;;;;;;;3.33;3.03;;;25.10;99.90;;;;;;5081201;28;20478;-78
2022/07/23 02:30:02;;;;;;;3.60;3.20;;;24.90;99.90;;;;;;5081608;28;20488;-78
2022/07/23 02:32:31;;;;;;;3.00;2.80;;;24.80;99.90;;;;;;5085413;28;20442;-77
2022/07/23 02:35:00;;;;;;;3.33;3.03;;;24.90;99.90;;;;;;5084011;28;20458;-78
2022/07/23 02:37:28;;;;;;;4.50;3.67;;;24.90;99.90;;;;;;5078510;28;20485;-77
2022/07/23 02:39:56;;;;;;;3.03;2.83;;;25.10;99.90;;;;;;5085132;28;20625;-77
2022/07/23 02:42:24;;;;;;;3.30;3.00;;;25.20;99.90;;;;;;5083143;28;20514;-76
2022/07/23 02:44:53;;;;;;;3.60;3.37;;;25.30;99.90;;;;;;5083266;28;20454;-77
2022/07/23 02:47:21;;;;;;;3.20;3.00;;;25.50;99.90;;;;;;5078429;28;20600;-77
2022/07/23 02:49:50;;;;;;;3.07;2.77;;;25.70;99.90;;;;;;5077491;28;20461;-77
2022/07/23 02:52:18;;;;;;;3.50;3.20;;;25.80;99.90;;;;;;5088002;28;20453;-77
2022/07/23 02:54:47;;;;;;;3.83;3.30;;;25.90;99.90;;;;;;5080715;28;20454;-78
2022/07/23 02:57:15;;;;;;;3.23;2.97;;;26.00;99.90;;;;;;5083348;28;20852;-77
2022/07/23 02:59:43;;;;;;;2.57;2.37;;;26.00;99.90;;;;;;5085144;28;20464;-79
2022/07/23 03:02:12;;;;;;;2.83;2.63;;;26.00;99.90;;;;;;5081278;28;20457;-77
2022/07/23 03:04:42;;;;;;;4.20;3.37;;;26.00;99.90;;;;;;5076321;28;20583;-79
2022/07/23 03:07:11;;;;;;;3.90;3.53;;;26.00;99.90;;;;;;5080347;28;20505;-77
2022/07/23 03:09:40;;;;;;;3.30;3.00;;;26.00;99.90;;;;;;5078351;28;20481;-77
2022/07/23 03:12:08;;;;;;;3.10;2.90;;;26.00;99.90;;;;;;5077438;28;20451;-76
2022/07/23 03:14:41;;;;;;;3.33;3.00;;;26.00;99.90;;;;;;5084964;28;20484;-76
2022/07/23 03:17:10;;;;;;;3.83;3.50;;;26.00;99.90;;;;;;5079498;28;20889;-77
2022/07/23 03:19:38;;;;;;;3.60;3.30;;;26.00;99.90;;;;;;5092602;28;20449;-76
2022/07/23 03:22:07;;;;;;;3.93;3.10;;;25.90;99.90;;;;;;5083812;28;20460;-76
2022/07/23 03:24:55;;;;;;;4.30;3.13;;;25.90;99.90;;;;;;5085637;28;20451;-76
2022/07/23 03:27:24;;;;;;;3.37;3.17;;;25.90;99.90;;;;;;5081713;28;20477;-77
2022/07/23 03:29:53;;;;;;;3.20;2.90;;;25.90;99.90;;;;;;5082906;28;20477;-78
2022/07/23 03:32:21;;;;;;;3.50;3.27;;;25.60;99.90;;;;;;5080351;28;20756;-77
2022/07/23 03:34:50;;;;;;;3.00;2.80;;;25.60;99.90;;;;;;5089416;28;20532;-79
2022/07/23 03:37:19;;;;;;;3.90;3.00;;;25.70;99.90;;;;;;5086072;28;20524;-77
2022/07/23 03:39:50;;;;;;;3.53;3.33;;;25.70;99.90;;;;;;5085667;28;20443;-76
2022/07/23 03:42:18;;;;;;;3.50;3.20;;;25.80;99.90;;;;;;5078088;28;21347;-76
2022/07/23 03:44:46;;;;;;;3.10;2.90;;;25.80;99.90;;;;;;5081586;28;20454;-76
2022/07/23 03:47:15;;;;;;;4.60;3.00;;;25.90;99.90;;;;;;5081042;28;20530;-77
2022/07/23 03:49:43;;;;;;;3.77;3.47;;;25.80;99.90;;;;;;5083022;28;20779;-80
2022/07/23 03:52:11;;;;;;;3.97;3.53;;;25.80;99.90;;;;;;5085227;28;20446;-78
2022/07/23 03:54:39;;;;;;;3.37;3.07;;;25.80;99.90;;;;;;5089310;28;20752;-78
2022/07/23 03:57:09;;;;;;;4.20;3.30;;;25.80;99.90;;;;;;5081765;28;21021;-79
2022/07/23 03:59:37;;;;;;;4.10;3.80;;;25.80;99.90;;;;;;5084037;28;20464;-79
2022/07/23 04:02:05;;;;;;;3.90;3.20;;;25.70;99.90;;;;;;5071122;28;20538;-79
2022/07/23 04:04:33;;;;;;;3.33;3.13;;;25.70;99.90;;;;;;5078223;28;20462;-77
2022/07/23 04:07:02;;;;;;;3.97;3.67;;;25.70;99.90;;;;;;5080329;28;20488;-78
2022/07/23 04:09:30;;;;;;;3.70;3.40;;;25.70;99.90;;;;;;5080178;28;20513;-78
2022/07/23 04:11:58;;;;;;;3.60;3.30;;;25.60;99.90;;;;;;5077836;28;20957;-78
2022/07/23 04:14:28;;;;;;;4.90;4.13;;;25.60;99.90;;;;;;5080872;28;21070;-77
2022/07/23 04:16:56;;;;;;;4.97;4.03;;;25.60;99.90;;;;;;5076071;28;20599;-77
2022/07/23 04:19:24;;;;;;;4.00;3.70;;;25.50;99.90;;;;;;5082348;28;20547;-77
2022/07/23 04:21:52;;;;;;;3.70;3.20;;;25.60;99.90;;;;;;5080806;28;20510;-77
2022/07/23 04:24:21;;;;;;;3.23;3.03;;;25.50;99.90;;;;;;5082558;28;20438;-77
2022/07/23 04:26:49;;;;;;;3.80;3.43;;;25.40;99.90;;;;;;5084243;28;20469;-78
2022/07/23 04:29:17;;;;;;;3.77;3.47;;;25.50;99.90;;;;;;5082725;28;20585;-77
2022/07/23 04:31:46;;;;;;;3.27;2.97;;;25.50;99.90;;;;;;5082903;28;20446;-76
2022/07/23 04:34:15;;;;;;;3.97;3.47;;;25.50;99.90;;;;;;5081529;28;21030;-78
2022/07/23 04:36:43;;;;;;;3.43;3.13;;;25.50;99.90;;;;;;5083030;28;20469;-80
2022/07/23 04:39:11;;;;;;;3.57;3.27;;;25.50;99.90;;;;;;5082161;28;20778;-78
2022/07/23 04:41:39;;;;;;;3.17;2.87;;;25.40;99.90;;;;;;5081152;28;20960;-76
2022/07/23 04:44:09;;;;;;;3.80;3.40;;;25.30;99.90;;;;;;5082482;28;20789;-78
2022/07/23 04:46:37;;;;;;;3.90;3.60;;;25.40;99.90;;;;;;5081253;28;20462;-78
2022/07/23 04:49:07;;;;;;;3.77;3.43;;;25.50;99.90;;;;;;5080421;28;20804;-78
2022/07/23 04:51:35;;;;;;;3.60;3.40;;;25.40;99.90;;;;;;5083882;28;20465;-78
2022/07/23 04:54:04;;;;;;;4.00;3.70;;;25.40;99.90;;;;;;5085301;28;21079;-81
2022/07/23 04:56:32;;;;;;;3.60;3.40;;;25.50;99.90;;;;;;5083366;28;20457;-76
2022/07/23 04:59:00;;;;;;;4.27;3.97;;;25.40;99.90;;;;;;5078518;28;21262;-76
2022/07/23 05:01:29;;;;;;;3.90;3.70;;;25.30;99.90;;;;;;5082751;28;20472;-78
2022/07/23 05:03:57;;;;;;;3.93;3.53;;;25.20;99.90;;;;;;5082591;28;20473;-76
2022/07/23 05:06:26;;;;;;;4.80;4.23;;;25.20;99.90;;;;;;5082973;28;20548;-77
2022/07/23 05:08:55;;;;;;;4.03;3.73;;;25.20;99.90;;;;;;5084974;28;20461;-78
2022/07/23 05:11:23;;;;;;;4.40;4.10;;;25.20;99.90;;;;;;5082195;28;20457;-76
2022/07/23 05:13:54;;;;;;;3.87;3.60;;;25.20;99.90;;;;;;5078773;28;20449;-76
2022/07/23 05:16:22;;;;;;;3.57;3.37;;;25.20;99.90;;;;;;5077956;28;20530;-77
2022/07/23 05:18:51;;;;;;;4.33;3.80;;;25.10;99.90;;;;;;5082350;28;21000;-79
2022/07/23 05:21:19;;;;;;;4.47;4.00;;;25.20;99.90;;;;;;5082432;28;20495;-78
2022/07/23 05:23:48;;;;;;;3.87;3.60;;;25.30;99.90;;;;;;5083188;28;21254;-79
2022/07/23 05:26:16;;;;;;;3.57;3.37;;;25.30;99.90;;;;;;5080083;28;20996;-79
2022/07/23 05:28:45;;;;;;;6.20;4.30;;;25.20;99.90;;;;;;5087074;28;20446;-78
2022/07/23 05:31:17;;;;;;;4.10;3.80;;;25.00;99.90;;;;;;5083331;28;21245;-77
2022/07/23 05:33:45;;;;;;;3.70;3.40;;;25.10;99.90;;;;;;5085377;28;21486;-78
2022/07/23 05:36:13;;;;;;;3.53;3.23;;;25.10;99.90;;;;;;5085674;28;20477;-78
2022/07/23 05:38:41;;;;;;;7.23;4.13;;;25.30;99.90;;;;;;5089267;28;20452;-79
2022/07/23 05:41:11;;;;;;;4.50;4.10;;;25.50;99.90;;;;;;5088605;28;20441;-78
2022/07/23 05:43:39;;;;;;;3.63;3.43;;;25.50;99.90;;;;;;5086789;28;20442;-79
2022/07/23 05:46:07;;;;;;;5.27;4.40;;;25.60;99.90;;;;;;5090015;28;20472;-78
2022/07/23 05:48:36;;;;;;;3.37;3.07;;;25.70;99.90;;;;;;5086390;28;20497;-77
2022/07/23 05:51:06;;;;;;;4.30;4.00;;;25.70;99.90;;;;;;5084531;28;20492;-78
2022/07/23 05:53:35;;;;;;;5.93;4.00;;;25.80;99.90;;;;;;5086338;28;20453;-78
2022/07/23 05:56:03;;;;;;;4.90;4.50;;;25.90;99.90;;;;;;5089231;28;21326;-77
2022/07/23 05:58:33;;;;;;;5.33;4.83;;;25.90;99.90;;;;;;5091244;28;20454;-76
2022/07/23 06:01:01;;;;;;;4.33;4.03;;;25.90;99.90;;;;;;5087348;28;20457;-78
2022/07/23 06:03:29;;;;;;;5.20;3.90;;;25.90;99.90;;;;;;5090307;28;20503;-77
2022/07/23 06:05:57;;;;;;;4.70;4.13;;;26.00;99.90;;;;;;5086037;28;20491;-76
2022/07/23 06:08:25;;;;;;;5.10;4.70;;;26.00;99.90;;;;;;5091120;28;20445;-78
2022/07/23 06:10:53;;;;;;;5.73;5.23;;;25.70;99.90;;;;;;5089792;28;20495;-78
2022/07/23 06:13:21;;;;;;;4.53;4.23;;;25.60;99.90;;;;;;5085606;28;20468;-77
2022/07/23 06:15:51;;;;;;;4.57;4.17;;;25.70;99.90;;;;;;5082721;28;20474;-77
2022/07/23 06:18:19;;;;;;;10.30;5.23;;;25.60;99.90;;;;;;5084240;28;20461;-77
2022/07/23 06:20:47;;;;;;;5.87;5.17;;;25.30;99.90;;;;;;5079901;28;20454;-81
2022/07/23 06:23:19;;;;;;;5.67;5.07;;;25.30;99.90;;;;;;5090858;28;20546;-76
2022/07/23 06:25:47;;;;;;;6.40;4.97;;;25.30;99.90;;;;;;5080625;28;20477;-77
2022/07/23 06:28:15;;;;;;;5.43;5.03;;;25.30;99.90;;;;;;5084672;28;20526;-76
2022/07/23 06:30:43;;;;;;;6.40;5.83;;;25.80;99.90;;;;;;5086026;28;20982;-77
2022/07/23 06:33:13;;;;;;;5.00;4.53;;;25.70;99.90;;;;;;5087063;28;20457;-76
2022/07/23 06:35:41;;;;;;;4.70;4.40;;;25.70;99.90;;;;;;5081650;28;22377;-76
2022/07/23 06:38:10;;;;;;;5.33;4.93;;;25.90;99.90;;;;;;5083892;28;20458;-78
2022/07/23 06:40:38;;;;;;;5.33;4.40;;;26.00;99.90;;;;;;5088253;28;20446;-78
2022/07/23 06:43:07;;;;;;;4.60;4.20;;;26.10;99.90;;;;;;5087088;28;20453;-77
2022/07/23 06:45:35;;;;;;;5.43;5.00;;;26.20;99.90;;;;;;5080378;28;20485;-78
2022/07/23 06:48:03;;;;;;;5.80;5.17;;;26.20;99.90;;;;;;5082298;28;20501;-76
2022/07/23 06:50:33;;;;;;;5.20;4.80;;;26.30;99.90;;;;;;5083843;28;20981;-75
2022/07/23 06:53:01;;;;;;;4.83;4.43;;;26.30;99.90;;;;;;5083469;28;20533;-78
2022/07/23 06:55:29;;;;;;;5.57;5.17;;;26.30;99.90;;;;;;5081181;28;20465;-78
2022/07/23 06:57:58;;;;;;;6.17;5.57;;;26.40;99.90;;;;;;5085493;28;20449;-76
2022/07/23 07:00:26;;;;;;;6.00;5.07;;;26.40;99.90;;;;;;5084527;28;20471;-76
2022/07/23 07:02:55;;;;;;;4.50;4.07;;;26.50;99.90;;;;;;5077792;28;20957;-76
2022/07/23 07:05:25;;;;;;;4.50;4.10;;;26.50;99.90;;;;;;5076811;28;21015;-75
2022/07/23 07:07:55;;;;;;;5.17;4.73;;;26.50;99.90;;;;;;5078158;28;20452;-75
2022/07/23 07:10:23;;;;;;;4.67;4.27;;;26.50;99.90;;;;;;5082393;28;20568;-76
2022/07/23 07:12:51;;;;;;;5.40;4.23;;;26.50;99.90;;;;;;5084081;28;20453;-75
2022/07/23 07:15:20;;;;;;;4.60;4.30;;;26.50;99.90;;;;;;5079039;28;20449;-76
2022/07/23 07:17:48;;;;;;;4.50;4.10;;;26.50;99.90;;;;;;5084438;28;20481;-77
2022/07/23 07:20:16;;;;;;;5.30;4.60;;;26.50;99.90;;;;;;5078523;28;20980;-77
2022/07/23 07:22:44;;;;;;;4.90;4.50;;;26.60;99.90;;;;;;5089891;28;20960;-75
2022/07/23 07:25:14;;;;;;;5.00;4.43;;;26.60;99.90;;;;;;5080127;28;20530;-76
2022/07/23 07:27:43;;;;;;;4.73;4.33;;;26.70;99.90;;;;;;5078050;28;20980;-75
2022/07/23 07:30:12;;;;;;;5.80;4.50;;;26.70;99.90;;;;;;5085616;28;20489;-74
2022/07/23 07:32:41;;;;;;;4.20;3.90;;;26.70;99.90;;;;;;5085883;28;20580;-74
2022/07/23 07:35:25;;;;;;;5.53;4.30;;;26.80;99.90;;;;;;5082911;28;20453;-79
2022/07/23 07:37:53;;;;;;;4.40;4.00;;;26.80;99.90;;;;;;5081413;28;20450;-82
2022/07/23 07:40:23;;;;;;;4.67;4.27;;;26.80;99.90;;;;;;5093493;28;20453;-80
2022/07/23 07:42:57;;;;;;;4.63;4.23;;;26.90;99.90;;;;;;5077161;28;20453;-80
2022/07/23 07:45:26;;;;;;;4.83;4.30;;;26.90;99.90;;;;;;5080980;28;20461;-81
2022/07/23 07:47:54;;;;;;;3.97;3.67;;;26.90;99.90;;;;;;5079221;28;20470;-83
2022/07/23 07:50:23;;;;;;;3.60;3.40;;;26.90;99.90;;;;;;5079700;28;20455;-80
2022/07/23 07:52:51;;;;;;;4.30;3.97;;;27.00;99.90;;;;;;5086763;28;20208;-80
2022/07/23 07:55:19;;;;;;;4.33;3.70;;;27.10;99.90;;;;;;5085155;28;20453;-82
2022/07/23 07:57:49;;;;;;;4.17;3.90;;;27.10;99.90;;;;;;5085988;28;20454;-82
2022/07/23 08:00:17;;;;;;;4.10;3.70;;;27.10;99.90;;;;;;5084479;28;20450;-82
2022/07/23 08:02:48;;;;;;;4.67;4.27;;;27.10;99.90;;;;;;5075769;28;20454;-83
2022/07/23 08:05:20;;;;;;;4.90;4.50;;;27.20;99.90;;;;;;5083993;28;20458;-82
2022/07/23 08:07:55;;;;;;;4.97;4.47;;;27.20;99.90;;;;;;5084109;28;20441;-82
2022/07/23 08:10:24;;;;;;;3.40;3.20;;;27.20;99.90;;;;;;5074774;28;20457;-83
2022/07/23 08:12:56;;;;;;;4.13;3.83;;;27.20;99.90;;;;;;5082204;28;20464;-83
2022/07/23 08:15:26;;;;;;;4.70;4.30;;;27.30;99.90;;;;;;5085135;28;20462;-82
2022/07/23 08:17:54;;;;;;;4.90;4.50;;;27.30;99.90;;;;;;5086961;28;20467;-81
2022/07/23 08:20:24;;;;;;;4.57;4.27;;;27.30;99.90;;;;;;5090404;28;20484;-81
2022/07/23 08:22:54;;;;;;;3.63;3.40;;;27.30;99.90;;;;;;5091833;28;20507;-81
2022/07/23 08:25:24;;;;;;;3.90;3.63;;;27.30;99.90;;;;;;5088342;28;20454;-82
2022/07/23 08:27:54;;;;;;;3.77;3.47;;;27.30;99.90;;;;;;5079109;28;20449;-82
2022/07/23 08:30:22;;;;;;;3.70;3.40;;;27.30;99.90;;;;;;5090543;28;20458;-82
2022/07/23 08:32:53;;;;;;;4.27;3.97;;;27.30;99.90;;;;;;5089299;28;20465;-82
2022/07/23 08:35:27;;;;;;;3.90;3.60;;;27.30;99.90;;;;;;5085349;28;20518;-82
2022/07/23 08:37:55;;;;;;;3.70;3.50;;;27.40;99.90;;;;;;5087790;28;20991;-82
2022/07/23 08:40:26;;;;;;;4.20;3.90;;;27.30;99.90;;;;;;5087345;28;20454;-81
2022/07/23 08:42:56;;;;;;;4.20;3.90;;;27.30;99.90;;;;;;5090639;28;20460;-82
2022/07/23 08:45:26;;;;;;;3.50;3.27;;;27.30;99.90;;;;;;5089330;28;21010;-82
2022/07/23 08:47:55;;;;;;;4.10;3.70;;;27.30;99.90;;;;;;5089009;28;20453;-81
2022/07/23 08:50:25;;;;;;;5.00;4.60;;;27.40;99.90;;;;;;5083117;28;20537;-81
2022/07/23 08:52:56;;;;;;;4.20;3.90;;;27.40;99.90;;;;;;5089892;28;20573;-82
2022/07/23 08:55:24;;;;;;;3.90;3.60;;;27.50;99.90;;;;;;5092480;28;20441;-81
2022/07/23 08:57:54;;;;;;;3.83;3.63;;;27.50;99.90;;;;;;5078693;28;20477;-81
2022/07/23 09:00:23;;;;;;;5.70;4.37;;;27.40;99.90;;;;;;5092655;28;20450;-81
2022/07/23 09:02:52;;;;;;;3.50;3.30;;;27.40;99.90;;;;;;5090469;28;20476;-82
2022/07/23 09:05:20;;;;;;;5.30;4.60;;;27.50;99.90;;;;;;5088607;28;20456;-81
2022/07/23 09:08:13;;;;;;;4.10;3.80;;;27.40;99.90;;;;;;5085610;28;20450;-82
2022/07/23 09:10:53;;;;;;;4.27;3.97;;;27.50;99.90;;;;;;5094467;28;20464;-82
2022/07/23 09:13:38;;;;;;;3.63;3.43;;;27.50;99.90;;;;;;5092945;28;20985;-81
2022/07/23 09:16:10;;;;;;;4.03;3.73;;;27.50;99.90;;;;;;5081617;28;20488;-81
2022/07/23 09:18:41;;;;;;;4.07;3.77;;;27.60;99.90;;;;;;5088163;28;20453;-81
2022/07/23 09:21:15;;;;;;;3.57;3.37;;;27.50;99.90;;;;;;5088628;28;20830;-81
2022/07/23 09:23:44;;;;;;;4.50;4.20;;;27.60;99.90;;;;;;5080735;28;20519;-81
2022/07/23 09:26:31;;;;;;;4.30;4.00;;;27.60;99.90;;;;;;5079713;28;20474;-81
2022/07/23 09:29:07;;;;;;;4.90;4.50;;;27.60;99.90;;;;;;5088975;28;20454;-83
2022/07/23 09:31:44;;;;;;;3.83;3.50;;;27.70;99.90;;;;;;5083602;28;20477;-81
2022/07/23 09:34:16;;;;;;;4.90;4.50;;;27.70;99.90;;;;;;5080857;28;20510;-83
2022/07/23 09:36:45;;;;;;;5.43;4.93;;;27.80;99.90;;;;;;5081243;28;20483;-81
2022/07/23 09:39:15;;;;;;;5.17;4.77;;;27.70;99.90;;;;;;5070504;28;20450;-81
2022/07/23 09:41:44;;;;;;;4.80;4.40;;;27.80;99.90;;;;;;5082831;28;20438;-81
2022/07/23 09:44:17;;;;;;;4.47;4.13;;;27.80;99.90;;;;;;5077384;28;20449;-83
2022/07/23 09:46:46;;;;;;;4.13;3.83;;;27.80;99.90;;;;;;5072066;28;20508;-82
2022/07/23 09:49:17;;;;;;;4.40;4.00;;;27.90;99.90;;;;;;5076256;28;20457;-82
2022/07/23 09:51:47;;;;;;;5.53;5.03;;;28.00;99.90;;;;;;5079227;28;20812;-81
2022/07/23 09:54:27;;;;;;;4.80;4.40;;;28.00;99.90;;;;;;5085203;28;20445;-82
2022/07/23 09:56:56;;;;;;;5.60;5.07;;;28.10;99.90;;;;;;5083473;28;20568;-82
2022/07/23 09:59:28;;;;;;;4.70;4.40;;;28.00;99.90;;;;;;5079571;28;20834;-82
2022/07/23 10:01:59;;;;;;;5.00;4.70;;;28.10;99.90;;;;;;5077147;28;21142;-82
2022/07/23 10:04:28;;;;;;;4.23;4.03;;;28.10;99.90;;;;;;5078903;28;20446;-82
2022/07/23 10:06:59;;;;;;;4.30;3.90;;;28.10;99.90;;;;;;5079330;28;20480;-81
2022/07/23 10:09:30;;;;;;;5.50;5.10;;;28.20;99.90;;;;;;5080115;28;20869;-81
2022/07/23 10:12:08;;;;;;;4.67;4.27;;;28.20;99.90;;;;;;5079733;28;20579;-81
2022/07/23 10:14:38;;;;;;;5.07;4.67;;;28.20;99.90;;;;;;5079861;28;20595;-82
2022/07/23 10:17:06;;;;;;;9.50;4.77;;;28.20;99.90;;;;;;5084154;28;20470;-81
2022/07/23 10:19:34;;;;;;;4.60;4.30;;;28.20;99.90;;;;;;5085186;28;20458;-81
2022/07/23 10:22:04;;;;;;;4.50;4.20;;;28.20;99.90;;;;;;5083142;28;20445;-82
2022/07/23 10:24:54;;;;;;;5.23;4.83;;;28.20;99.90;;;;;;5086541;28;20544;-81
2022/07/23 10:27:52;;;;;;;4.73;4.20;;;28.20;99.90;;;;;;5087129;28;20478;-82
2022/07/23 10:30:31;;;;;;;6.07;4.50;;;28.20;99.90;;;;;;5071296;28;20548;-82
2022/07/23 10:33:12;;;;;;;4.60;4.27;;;28.20;99.90;;;;;;5081955;28;20489;-81
2022/07/23 10:35:48;;;;;;;4.70;4.03;;;28.30;99.90;;;;;;5082245;28;20799;-82
2022/07/23 10:38:26;;;;;;;4.53;4.23;;;28.30;99.90;;;;;;5081171;28;20967;-82
2022/07/23 10:40:59;;;;;;;4.87;4.47;;;28.30;99.90;;;;;;5085420;28;20454;-83
2022/07/23 10:43:28;;;;;;;3.67;3.40;;;28.30;99.90;;;;;;5084970;28;20450;-83
2022/07/23 10:46:21;;;;;;;4.27;3.97;;;28.40;99.90;;;;;;5086571;28;21002;-82
2022/07/23 10:49:25;;;;;;;4.93;4.53;;;28.40;99.90;;;;;;5082691;28;20477;-82
2022/07/23 10:52:23;;;;;;;5.07;4.60;;;28.40;99.90;;;;;;5084605;28;20485;-82
2022/07/23 10:54:53;;;;;;;4.77;4.47;;;28.40;99.90;;;;;;5087244;28;20540;-81
2022/07/23 10:57:23;;;;;;;4.50;4.10;;;28.40;99.90;;;;;;5079747;28;20469;-81
2022/07/23 11:00:25;;;;;;;3.70;3.43;;;28.40;99.90;;;;;;5080141;28;20525;-82
2022/07/23 11:02:58;;;;;;;4.30;3.90;;;28.50;99.90;;;;;;4982727;28;20969;-81
2022/07/23 11:05:39;;;;;;;4.57;4.17;;;28.50;99.90;;;;;;4997260;28;21174;-82
2022/07/23 11:08:25;;;;;;;4.27;3.90;;;28.40;99.90;;;;;;5041112;28;20541;-81
2022/07/23 11:10:56;;;;;;;4.20;3.90;;;28.50;99.90;;;;;;5078527;28;20811;-82
2022/07/23 11:13:31;;;;;;;4.07;3.77;;;28.60;99.90;;;;;;5083903;28;20484;-80
2022/07/23 11:16:14;;;;;;;4.23;3.73;;;28.50;99.90;;;;;;5082736;28;20544;-81
2022/07/23 11:19:04;;;;;;;4.43;4.03;;;28.50;99.90;;;;;;5084513;28;21303;-82
2022/07/23 11:21:56;;;;;;;4.73;4.33;;;28.60;99.90;;;;;;5083485;28;20442;-81
2022/07/23 11:24:25;;;;;;;4.37;4.07;;;28.60;99.90;;;;;;5068312;28;20477;-82
2022/07/23 11:27:02;;;;;;;4.40;4.00;;;28.70;99.90;;;;;;5100618;28;20466;-83
2022/07/23 11:29:55;;;;;;;4.10;3.80;;;28.60;99.90;;;;;;5080283;28;20446;-82
2022/07/23 11:32:33;;;;;;;3.77;3.47;;;28.70;99.90;;;;;;5088787;28;20477;-82
2022/07/23 11:35:04;;;;;;;3.93;3.10;;;28.70;99.90;;;;;;5088959;28;21001;-82
2022/07/23 11:37:38;;;;;;;4.00;3.70;;;28.70;99.90;;;;;;5088264;28;20472;-82
2022/07/23 11:40:12;;;;;;;4.67;4.27;;;28.70;99.90;;;;;;5083729;28;20450;-83
2022/07/23 11:42:40;;;;;;;4.87;4.50;;;28.70;99.90;;;;;;5078561;28;20453;-83
2022/07/23 11:45:09;;;;;;;4.10;3.80;;;28.80;99.90;;;;;;5083653;28;20457;-82
2022/07/23 11:47:37;;;;;;;4.03;3.73;;;28.80;99.90;;;;;;5083001;28;20484;-82
2022/07/23 11:50:08;;;;;;;3.77;3.57;;;28.80;99.90;;;;;;5081842;28;20894;-82
2022/07/23 11:52:36;;;;;;;5.27;4.80;;;28.80;99.90;;;;;;5083258;28;20470;-82
2022/07/23 11:55:07;;;;;;;4.50;4.10;;;28.90;99.90;;;;;;5077336;28;20480;-82
2022/07/23 11:57:37;;;;;;;4.20;3.90;;;28.90;99.90;;;;;;5080923;28;20470;-82
2022/07/23 12:00:10;;;;;;;5.23;4.53;;;28.90;99.90;;;;;;5081406;28;20458;-83
2022/07/23 12:02:39;;;;;;;3.87;3.67;;;28.80;99.90;;;;;;5077085;28;20442;-83
2022/07/23 12:05:12;;;;;;;4.47;4.17;;;28.90;99.90;;;;;;5076888;28;20438;-83
2022/07/23 12:07:43;;;;;;;4.87;4.47;;;28.90;99.90;;;;;;5077426;28;20508;-82
2022/07/23 12:10:15;;;;;;;5.17;4.70;;;28.90;99.90;;;;;;5085830;28;20442;-81
2022/07/23 12:12:46;;;;;;;3.87;3.60;;;28.90;99.90;;;;;;5078960;28;20482;-81
2022/07/23 12:15:16;;;;;;;4.27;3.97;;;28.90;99.90;;;;;;5081450;28;20446;-80
2022/07/23 12:17:47;;;;;;;4.93;4.53;;;29.00;99.90;;;;;;5085903;28;20515;-85
2022/07/23 12:20:22;;;;;;;4.60;4.20;;;29.00;99.90;;;;;;5079619;28;21117;-85
2022/07/23 12:22:53;;;;;;;5.20;4.80;;;29.00;99.90;;;;;;5079249;28;20977;-84
2022/07/23 12:25:23;;;;;;;4.47;4.13;;;29.10;99.90;;;;;;5080459;28;20453;-84
2022/07/23 12:28:01;;;;;;;4.00;3.70;;;29.10;99.90;;;;;;5081566;28;20515;-83
2022/07/23 12:30:33;;;;;;;4.60;4.30;;;29.10;99.90;;;;;;5078319;28;20450;-84
2022/07/23 12:33:03;;;;;;;4.20;3.90;;;29.10;99.90;;;;;;5084894;28;20481;-86
2022/07/23 12:35:37;;;;;;;4.43;4.07;;;29.10;99.90;;;;;;5079311;28;20450;-86
2022/07/23 12:38:08;;;;;;;4.43;4.13;;;29.20;99.90;;;;;;5086145;28;20449;-88
2022/07/23 12:40:42;;;;;;;3.90;3.60;;;29.20;99.90;;;;;;5085401;28;20462;-89
2022/07/23 12:43:11;;;;;;;4.20;3.90;;;29.20;99.90;;;;;;5078142;28;20457;-86
2022/07/23 12:45:49;;;;;;;4.83;4.53;;;29.20;99.90;;;;;;5077757;28;20492;-84
2022/07/23 12:48:23;;;;;;;3.70;3.43;;;29.30;99.90;;;;;;5079992;28;21076;-85
2022/07/23 12:50:58;;;;;;;5.03;4.67;;;29.30;99.90;;;;;;5078792;28;20453;-84
2022/07/23 12:53:30;;;;;;;6.47;6.00;;;29.30;99.90;;;;;;5078576;28;20482;-84
2022/07/23 12:56:01;;;;;;;6.77;5.00;;;29.40;99.90;;;;;;5079351;28;20484;-84
2022/07/23 12:58:44;;;;;;;5.27;4.87;;;29.40;99.90;;;;;;5072251;28;20465;-82
2022/07/23 13:01:26;;;;;;;4.30;4.00;;;29.50;99.90;;;;;;5080900;28;21141;-82
2022/07/23 13:04:00;;;;;;;4.87;4.47;;;29.40;99.90;;;;;;5077955;28;20449;-82
2022/07/23 13:06:31;;;;;;;4.40;4.00;;;29.40;99.90;;;;;;5078601;28;20483;-82